Nearby METAR Reports

 

EGEO - Oban, United Kingdom
Distance from station: SSW 18mi, 30km
Updated: 26/06/2019 16:50
Clear
Clear
 Wind from W
Wind: W 14 mph , 22 km/h
Temperature: 18°C
Dew Point: 10°C
Humidity: 60%
Barometer: 1031 hPa
Summary: Clear
Visibility: greater than 7 miles , 10 km
2019/06/26 15:50 EGEO 261550Z 27012KT CAVOK 18/10 Q1031
EGPU - Tiree, United Kingdom
Distance from station: WSW 64mi, 103km
Updated: 26/06/2019 16:20
Few Clouds
Few Clouds
 Wind from N
Wind: N 20 mph , 31 km/h
Temperature: 15°C
Dew Point: 11°C
Humidity: 77%
Barometer: 1033 hPa
Clouds: Few Clouds
Visibility: 6 miles , 10 km
Cloud details: Few Clouds 488 m
2019/06/26 15:20 EGPU 261520Z 36017KT 9999 FEW016 15/11 Q1033
EGPF - Glasgow, United Kingdom
Distance from station: SSE 66mi, 107km
Updated: 26/06/2019 16:20
Clear
Clear
 Wind from varies
Wind: varies 2 mph , 4 km/h
Temperature: 21°C
Dew Point: 11°C
Humidity: 53%
Barometer: 1031 hPa
Clouds: Clear
Visibility: 6 miles , 10 km
2019/06/26 15:20 EGPF 261520Z AUTO VRB02KT 9999 NCD 21/11 Q1031
 
EGPE - Inverness, United Kingdom
Distance from station: NE 71mi, 114km
Updated: 26/06/2019 16:20
Few Clouds
Few Clouds
 Wind from varies
Wind: varies 5 mph , 7 km/h
Temperature: 19°C
Dew Point: 12°C
Humidity: 64%
Barometer: 1031 hPa
Clouds: Few Clouds
Visibility: 6 miles , 10 km
Cloud details: Few Clouds 1067 m
2019/06/26 15:20 EGPE 261520Z VRB04KT 9999 FEW035 19/12 Q1031
EGPI - Islay/Port Ellen, United Kingdom
Distance from station: SSW 81mi, 131km
Updated: 26/06/2019 16:20
Clear
Clear
 Wind from N
Wind: N 16 mph , 26 km/h
Temperature: 17°C
Dew Point: 10°C
Humidity: 64%
Barometer: 1032 hPa
Summary: Clear
Visibility: greater than 7 miles , 10 km
2019/06/26 15:20 EGPI 261520Z 35014KT 300V030 CAVOK 17/10 Q1032
EGPN - Dundee/Riverside, United Kingdom
Distance from station: E 86mi, 138km
Updated: 26/06/2019 16:20
Few Clouds
Few Clouds
 Wind from varies
Wind: varies 3 mph , 6 km/h
Temperature: 18°C
Dew Point: 12°C
Humidity: 68%
Barometer: 1031 hPa
Clouds: Few Clouds
Visibility: 6 miles , 10 km
Cloud details: Few Clouds 427 m
2019/06/26 15:20 EGPN 261520Z VRB03KT 9999 FEW014 18/12 Q1031
 
EGPK - Prestwick, United Kingdom
Distance from station: SSE 88mi, 141km
Updated: 26/06/2019 16:20
Few Clouds
Few Clouds
 Wind from W
Wind: W 12 mph , 19 km/h
Temperature: 20°C
Dew Point: 12°C
Humidity: 60%
Barometer: 1031 hPa
Clouds: Few Clouds
Visibility: 6 miles , 10 km
Cloud details: Few Clouds 1219 m
2019/06/26 15:20 EGPK 261520Z 26010KT 9999 FEW040 20/12 Q1031
EGPH - Edinburgh, United Kingdom
Distance from station: SE 89mi, 143km
Updated: 26/06/2019 16:20
Clear
Clear
 Wind from NE
Wind: NE 8 mph , 13 km/h
Temperature: 17°C
Dew Point: 12°C
Humidity: 73%
Barometer: 1031 hPa
Summary: Clear
Visibility: greater than 7 miles , 10 km
2019/06/26 15:20 EGPH 261520Z 04007KT 010V080 CAVOK 17/12 Q1031
EGQK - RAF Kinloss, United Kingdom
Distance from station: NE 90mi, 144km
Updated: 26/06/2019 15:50
Clear
Clear
 Wind from NW
Wind: NW 13 mph , 20 km/h
Temperature: 17°C
Dew Point: 10°C
Humidity: 64%
Barometer: 1031 hPa
Clouds: Clear
Visibility: 6 miles , 10 km
2019/06/26 14:50 EGQK 261450Z AUTO 31011KT 9999 NCD 17/10 Q1031
 
EGEC - Campbeltown, United Kingdom
Distance from station: S 90mi, 145km
Updated: 26/06/2019 16:20
Clear
Clear
 Wind from W
Wind: W 8 mph , 13 km/h
Temperature: 16°C
Dew Point: 12°C
Humidity: 77%
Barometer: 1031 hPa
Summary: Clear
Visibility: greater than 7 miles , 10 km
2019/06/26 15:20 EGEC 261520Z 28007KT CAVOK 16/12 Q1031
EGQA - Tain Range, United Kingdom
Distance from station: NNE 91mi, 146km
Updated: 26/06/2019 14:50
NOT Current
Few Clouds
Few Clouds
 Wind from WNW
Wind: WNW 23 mph , 37 km/h
Clouds: Few Clouds
Visibility: 6 miles , 10 km
Cloud details: Few Clouds 701 m
2019/06/26 13:50 EGQA 261350Z 29020KT 9999 FEW023 17/// Q1032 RMK BLU
EGQL - RAF Leuchars, United Kingdom
Distance from station: ESE 93mi, 149km
Updated: 26/06/2019 15:50
Clear
Clear
 Wind from SSW
Wind: SSW 8 mph , 13 km/h
Temperature: 17°C
Dew Point: 11°C
Humidity: 68%
Barometer: 1031 hPa
Summary: Clear
Visibility: greater than 7 miles , 10 km
2019/06/26 14:50 EGQL 261450Z 20007KT CAVOK 17/11 Q1031 BLU RMK BLU
 
EGPL - Benbecula, United Kingdom
Distance from station: WNW 96mi, 154km
Updated: 26/06/2019 16:20
Mostly cloudy
Mostly cloudy
 Wind from NW
Wind: NW 12 mph , 19 km/h
Temperature: 14°C
Dew Point: 10°C
Humidity: 77%
Barometer: 1034 hPa
Clouds: Mostly cloudy
Visibility: 6 miles , 10 km
Cloud details: Few Clouds 518 m
Mostly cloudy 640 m
2019/06/26 15:20 EGPL 261520Z 31010KT 9999 FEW017 BKN021 14/10 Q1034
EGQS - RAF Lossiemouth, United Kingdom
Distance from station: NE 99mi, 160km
Updated: 26/06/2019 16:19
Few Clouds
Few Clouds
 Wind from WNW
Wind: WNW 14 mph , 22 km/h
Temperature: 17°C
Dew Point: 11°C
Humidity: 68%
Barometer: 1031 hPa
Clouds: Few Clouds
Visibility: 6 miles , 10 km
Cloud details: Few Clouds 975 m
2019/06/26 15:19 EGQS 261519Z 30012KT 9999 FEW032 17/11 Q1031 NOSIG RMK BLU BLU
EGPO - Stornoway, United Kingdom
Distance from station: NNW 111mi, 179km
Updated: 26/06/2019 16:20
Mostly cloudy
Mostly cloudy
 Wind from WNW
Wind: WNW 12 mph , 19 km/h
Temperature: 14°C
Dew Point: 9°C
Humidity: 72%
Barometer: 1034 hPa
Clouds: Mostly cloudy
Visibility: 6 miles , 10 km
Cloud details: Mostly cloudy 610 m
2019/06/26 15:20 EGPO 261520Z 30010KT 9999 BKN020 14/09 Q1034
 
EGPD - Aberdeen/Dyce, United Kingdom
Distance from station: ENE 118mi, 190km
Updated: 26/06/2019 16:20
Clear
Clear
 Wind from NW
Wind: NW 7 mph , 11 km/h
Temperature: 18°C
Dew Point: 10°C
Humidity: 60%
Barometer: 1031 hPa
Clouds: Clear
Visibility: 6 miles , 10 km
2019/06/26 15:20 EGPD 261520Z AUTO 32006KT 260V350 9999 NCD 18/10 Q1031 NOSIG
EGAE - Eglinton/Londond, United Kingdom
Distance from station: SSW 138mi, 222km
Updated: 26/06/2019 16:20
Few Clouds
Few Clouds
 Wind from NE
Wind: NE 14 mph , 22 km/h
Temperature: 17°C
Dew Point: 11°C
Humidity: 68%
Barometer: 1033 hPa
Clouds: Few Clouds
Visibility: 6 miles , 10 km
Cloud details: Few Clouds 914 m
2019/06/26 15:20 EGAE 261520Z 04012KT 9999 FEW030 17/11 Q1033
EGPC - Wick, United Kingdom
Distance from station: NNE 144mi, 232km
Updated: 26/06/2019 16:20
Mostly cloudy
Mostly cloudy
 Wind from NW
Wind: NW 29 mph , 46 km/h
Temperature: 14°C
Dew Point: 10°C
Humidity: 77%
Barometer: 1031 hPa
Clouds: Mostly cloudy
Visibility: 6 miles , 10 km
Cloud details: Mostly cloudy 518 m
2019/06/26 15:20 EGPC 261520Z 31025KT 9999 BKN017 14/10 Q1031

Metar display script from Saratoga-Weather.org